Laemchabang, Thailand

11:23 PM ICT on December 22, 2014 (GMT +0700)
Pattaya | Change Station
CLOSE
Current Station
Personal Weather Station
Location: Pattaya, CHONBURI
Elevation: 141 ft
Nearby Weather Stations

Elev 141 ft 12.93 °N, 100.91 °E | Updated 3 minutes ago

Clear
Clear
72.9 °F
Feels Like 76 °F
N
1.0
Wind Variable Wind from North
Gusts 6.0 mph

Today
High -- | Low -- °F
--% Chance of Precip.
Yesterday
High -- | Low -- °F
Precip. -- in
6:34 AM 5:55 PM
New Moon, 1% visible
Pressure 29.98 in
Visibility 5.0 miles
Clouds
Heat Index 76 °F
Dew Point 61 °F
Humidity 67%
Rainfall 0.00 in
Snow Depth Not available.
UV Not available.
Pollen Not available.
Air Quality Not available.
Flu Activity Not available.
METAR VTBS 221600Z 06008KT 8000 NSC 24/14 Q1015 NOSIG

More Conditions Fewer Conditions

Pressure 29.98 in
Visibility 5.0 miles
Clouds
Heat Index 76 °F
Dew Point 61 °F
Humidity 67%
Rainfall 0.00 in
Snow Depth Not available.
UV Not available.
Pollen Not available.
Air Quality Not available.
Flu Activity Not available.
METAR VTBS 221600Z 06008KT 8000 NSC 24/14 Q1015 NOSIG

More Conditions Fewer Conditions

10-Day Weather Forecast

Almanac

Astronomy

Dec. 22, 2014 Rise Set
Actual Time
Civil Twilight
Nautical Twilight
Astronomical Twilight
Moon
Length of Visible Light
Length of Day
Tomorrow will be .
, % of the Moon is Illuminated

Today's Extremes

Country Highs Country Lows

Community

WunderPhotos

Upload Photos

1,779,632 photos uploaded!

WunderBlogs® & News

Nearby

Air Quality

  Air Quality AQ Index Pollutant
Not available.

Snow Depth

Station Depth Elevation

Earthquake Activity

City Distance Mag. Time & Date
Minimum magnitude displayed is 2.5.

Coastal Water Temperatures

Place Temperature

Nearby Weather Stations